createdAt,value
2022-12-20T00:01:51.279Z,94.83
2022-12-20T00:04:18.802Z,90.49
2022-12-20T00:06:46.404Z,86.64
2022-12-20T00:09:15.219Z,83.91
2022-12-20T00:11:44.275Z,78.33
2022-12-20T00:14:12.040Z,78.20
2022-12-20T00:16:39.722Z,76.56
2022-12-20T00:19:08.819Z,78.51
2022-12-20T00:21:36.986Z,82.66
2022-12-20T00:24:05.316Z,85.35
2022-12-20T00:26:35.702Z,86.01
2022-12-20T00:29:03.144Z,83.35
2022-12-20T00:31:31.640Z,84.14
2022-12-20T00:34:00.247Z,84.19
2022-12-20T00:36:30.077Z,83.83
2022-12-20T00:39:00.245Z,83.48
2022-12-20T00:41:29.162Z,84.93
2022-12-20T00:43:58.420Z,85.97
2022-12-20T00:46:26.988Z,84.72
2022-12-20T00:48:55.278Z,84.66
2022-12-20T00:51:24.999Z,84.96
2022-12-20T00:53:53.561Z,84.67
2022-12-20T00:56:21.296Z,85.63
2022-12-20T00:58:49.162Z,85.35
2022-12-20T01:01:21.498Z,86.02
2022-12-20T01:03:49.557Z,84.85
2022-12-20T01:06:17.661Z,85.29
2022-12-20T01:08:45.113Z,85.02
2022-12-20T01:11:14.893Z,85.43
2022-12-20T01:13:44.866Z,85.10
2022-12-20T01:16:15.192Z,85.76
2022-12-20T01:18:44.172Z,86.56
2022-12-20T01:21:14.459Z,85.78
2022-12-20T01:23:42.428Z,85.05
2022-12-20T01:26:13.095Z,83.85
2022-12-20T01:28:42.549Z,84.56
2022-12-20T01:31:12.686Z,84.87
2022-12-20T01:33:40.939Z,84.22
2022-12-20T01:36:14.706Z,84.79
2022-12-20T01:38:42.332Z,83.74
2022-12-20T01:41:15.540Z,85.05
2022-12-20T01:43:49.168Z,85.44
2022-12-20T01:46:17.319Z,85.37
2022-12-20T01:48:49.481Z,85.82
2022-12-20T01:51:19.433Z,83.42
2022-12-20T01:53:47.965Z,85.13
2022-12-20T01:56:15.712Z,86.29
2022-12-20T01:58:43.451Z,86.22
2022-12-20T02:01:11.002Z,85.22
2022-12-20T02:03:39.955Z,85.12
2022-12-20T02:06:20.264Z,85.58
2022-12-20T02:08:49.281Z,83.79
2022-12-20T02:11:33.186Z,84.10
2022-12-20T02:14:11.658Z,83.97
2022-12-20T02:16:47.910Z,82.93
2022-12-20T02:19:42.583Z,82.89
2022-12-20T02:22:23.885Z,84.41
2022-12-20T02:25:22.923Z,83.80
2022-12-20T02:27:58.550Z,84.68
2022-12-20T02:30:33.532Z,85.42
2022-12-20T02:33:04.089Z,84.42
2022-12-20T02:35:35.031Z,83.29
2022-12-20T02:38:05.073Z,86.90
2022-12-20T02:40:38.994Z,87.81
2022-12-20T02:43:35.402Z,85.46
2022-12-20T02:46:04.143Z,84.54
2022-12-20T02:48:35.487Z,83.84
2022-12-20T02:51:06.537Z,84.98
2022-12-20T02:53:35.018Z,84.42
2022-12-20T02:56:10.442Z,83.41
2022-12-20T02:58:43.241Z,83.49
2022-12-20T03:01:18.335Z,84.01
2022-12-20T03:03:46.504Z,83.19
2022-12-20T03:06:14.100Z,82.56
2022-12-20T03:08:41.556Z,83.82
2022-12-20T03:11:08.987Z,82.20
2022-12-20T03:13:36.420Z,83.22
2022-12-20T03:16:04.868Z,83.76
2022-12-20T03:18:33.708Z,83.58
2022-12-20T03:21:01.160Z,83.86
2022-12-20T03:23:28.607Z,84.26
2022-12-20T03:25:56.381Z,83.08
2022-12-20T03:28:23.997Z,83.78
2022-12-20T03:30:51.445Z,83.89
2022-12-20T03:33:18.843Z,85.15
2022-12-20T03:35:48.215Z,83.72
2022-12-20T03:38:15.666Z,84.52
2022-12-20T03:40:43.109Z,83.10
2022-12-20T03:43:10.514Z,83.52
2022-12-20T03:45:37.939Z,83.76
2022-12-20T03:48:05.355Z,81.72
2022-12-20T03:50:32.800Z,81.74
2022-12-20T03:53:01.761Z,83.16
2022-12-20T03:55:29.320Z,82.29
2022-12-20T03:57:56.972Z,82.06
2022-12-20T04:00:24.518Z,82.20
2022-12-20T04:02:52.344Z,81.91
2022-12-20T04:05:21.239Z,81.35
2022-12-20T04:07:48.701Z,81.96
2022-12-20T04:10:17.554Z,82.82
2022-12-20T04:12:45.007Z,82.78
2022-12-20T04:15:12.449Z,84.01
2022-12-20T04:17:40.006Z,83.57
2022-12-20T04:20:19.645Z,82.62
2022-12-20T04:22:47.227Z,84.73
2022-12-20T04:25:15.049Z,85.05
2022-12-20T04:27:43.805Z,87.55
2022-12-20T04:30:12.573Z,88.03
2022-12-20T04:32:40.151Z,85.75
2022-12-20T04:35:08.458Z,85.77
2022-12-20T04:37:35.896Z,84.79
2022-12-20T04:40:03.301Z,83.66
2022-12-20T04:42:30.752Z,83.87
2022-12-20T04:44:59.590Z,85.52
2022-12-20T04:47:27.031Z,84.88
2022-12-20T04:49:54.453Z,84.54
2022-12-20T04:52:43.609Z,84.26
2022-12-20T04:55:15.018Z,83.94
2022-12-20T04:57:42.476Z,84.60
2022-12-20T05:00:12.625Z,86.88
2022-12-20T05:02:40.120Z,84.20
2022-12-20T05:05:08.472Z,85.33
2022-12-20T05:07:35.907Z,85.33
2022-12-20T05:10:03.356Z,85.13
2022-12-20T05:12:30.784Z,85.30
2022-12-20T05:14:58.247Z,86.19
2022-12-20T05:17:26.989Z,86.48
2022-12-20T05:19:54.420Z,84.73
2022-12-20T05:22:39.340Z,83.68
2022-12-20T05:25:24.672Z,85.69
2022-12-20T05:27:52.091Z,86.28
2022-12-20T05:30:20.156Z,85.16
2022-12-20T05:32:49.174Z,83.88
2022-12-20T05:35:16.679Z,84.02
2022-12-20T05:37:44.217Z,83.34
2022-12-20T05:40:12.374Z,83.35
2022-12-20T05:42:40.221Z,82.15
2022-12-20T05:45:08.222Z,83.47
2022-12-20T05:47:35.633Z,83.74
2022-12-20T05:50:05.045Z,83.07
2022-12-20T05:52:33.164Z,82.02
2022-12-20T05:55:00.626Z,81.73
2022-12-20T05:57:28.607Z,82.24
2022-12-20T05:59:56.123Z,82.30
2022-12-20T06:02:23.808Z,82.94
2022-12-20T06:04:51.342Z,82.12
2022-12-20T06:07:20.464Z,81.50
2022-12-20T06:09:47.875Z,83.33
2022-12-20T06:12:15.381Z,81.92
2022-12-20T06:14:42.887Z,82.39
2022-12-20T06:17:12.012Z,82.18
2022-12-20T06:19:41.478Z,82.71
2022-12-20T06:22:09.544Z,85.12
2022-12-20T06:24:44.291Z,84.67
2022-12-20T06:27:15.549Z,82.92
2022-12-20T06:29:49.486Z,85.12
2022-12-20T06:32:16.888Z,85.58
2022-12-20T06:34:45.230Z,84.84
2022-12-20T06:37:12.848Z,83.50
2022-12-20T06:39:41.674Z,84.64
2022-12-20T06:42:09.244Z,85.33
2022-12-20T06:44:36.747Z,84.37
2022-12-20T06:47:04.868Z,84.92
2022-12-20T06:49:32.358Z,86.51
2022-12-20T06:51:59.793Z,85.31
2022-12-20T06:54:27.280Z,85.39
2022-12-20T06:56:56.095Z,87.00
2022-12-20T06:59:23.584Z,86.67
2022-12-20T07:01:53.526Z,86.30
2022-12-20T07:04:21.356Z,86.90
2022-12-20T07:06:48.857Z,88.17
2022-12-20T07:09:16.409Z,88.31
2022-12-20T07:11:44.280Z,89.69
2022-12-20T07:14:13.197Z,91.04
2022-12-20T07:16:41.622Z,89.80
2022-12-20T07:19:11.907Z,88.84
2022-12-20T07:21:39.482Z,89.24
2022-12-20T07:24:07.951Z,93.08
2022-12-20T07:26:35.804Z,90.00
2022-12-20T07:29:03.536Z,91.46
2022-12-20T07:31:32.345Z,90.42
2022-12-20T07:34:00.014Z,89.87
2022-12-20T07:36:27.612Z,88.43
2022-12-20T07:38:55.136Z,88.28
2022-12-20T07:41:22.799Z,89.03
2022-12-20T07:43:50.285Z,90.11
2022-12-20T07:46:18.800Z,91.98
2022-12-20T07:48:47.627Z,90.82
2022-12-20T07:51:18.753Z,89.38
2022-12-20T07:53:49.736Z,89.60
2022-12-20T07:56:19.425Z,88.27
2022-12-20T07:58:46.963Z,89.25
2022-12-20T08:01:14.910Z,89.29
2022-12-20T08:03:47.146Z,89.96
2022-12-20T08:06:17.000Z,89.44
2022-12-20T08:08:48.843Z,91.48
2022-12-20T08:11:17.493Z,88.58
2022-12-20T08:13:46.736Z,90.60
2022-12-20T08:16:15.018Z,90.13
2022-12-20T08:18:42.498Z,90.93
2022-12-20T08:21:10.736Z,89.94
2022-12-20T08:23:39.473Z,90.06
2022-12-20T08:26:07.057Z,91.30
2022-12-20T08:28:35.401Z,91.03
2022-12-20T08:31:03.236Z,90.70
2022-12-20T08:33:31.028Z,89.19
2022-12-20T08:35:59.525Z,90.78
2022-12-20T08:38:28.817Z,93.18
2022-12-20T08:40:58.022Z,92.06
2022-12-20T08:43:25.458Z,90.68
2022-12-20T08:45:55.257Z,91.12
2022-12-20T08:48:23.534Z,91.07
2022-12-20T08:50:55.603Z,91.07
2022-12-20T08:53:23.600Z,90.67
2022-12-20T08:55:51.046Z,90.77
2022-12-20T08:58:20.264Z,90.73
2022-12-20T09:00:48.191Z,90.45
2022-12-20T09:03:15.761Z,89.54
2022-12-20T09:05:47.549Z,89.35
2022-12-20T09:08:15.878Z,90.77
2022-12-20T09:10:43.571Z,90.11
2022-12-20T09:13:11.806Z,90.98
2022-12-20T09:15:40.856Z,90.99
2022-12-20T09:18:08.307Z,91.24
2022-12-20T09:20:35.766Z,90.46
2022-12-20T09:23:03.692Z,90.80
2022-12-20T09:25:31.223Z,90.88
2022-12-20T09:27:58.781Z,89.82
2022-12-20T09:30:26.299Z,89.16
2022-12-20T09:32:57.035Z,89.43
2022-12-20T09:35:38.140Z,89.35
2022-12-20T09:38:05.995Z,89.83
2022-12-20T09:40:33.663Z,92.33
2022-12-20T09:43:01.323Z,92.20
2022-12-20T09:45:31.263Z,91.14
2022-12-20T09:48:00.175Z,90.41
2022-12-20T09:50:41.043Z,88.88
2022-12-20T09:53:20.958Z,89.19
2022-12-20T09:55:54.847Z,88.96
2022-12-20T09:58:37.942Z,89.08
2022-12-20T10:01:22.970Z,89.50
2022-12-20T10:03:54.894Z,93.41
2022-12-20T10:06:34.826Z,93.24
2022-12-20T10:09:05.146Z,90.13
2022-12-20T10:11:51.177Z,88.04
2022-12-20T10:14:34.687Z,88.02
2022-12-20T10:17:06.213Z,88.51
2022-12-20T10:19:57.645Z,87.05
2022-12-20T10:22:30.061Z,90.21
2022-12-20T10:25:02.883Z,90.42
2022-12-20T10:27:30.489Z,88.02
2022-12-20T10:29:58.245Z,87.83
2022-12-20T10:32:26.951Z,87.22
2022-12-20T10:35:00.277Z,87.65
2022-12-20T10:37:27.839Z,87.69
2022-12-20T10:39:55.426Z,87.46
2022-12-20T10:42:27.410Z,88.38
2022-12-20T10:44:56.977Z,88.23
2022-12-20T10:47:34.875Z,88.75
2022-12-20T10:50:14.546Z,87.08
2022-12-20T10:52:42.320Z,87.29
2022-12-20T10:55:36.019Z,86.10
2022-12-20T10:58:12.923Z,88.06
2022-12-20T11:00:41.454Z,88.07
2022-12-20T11:03:15.746Z,87.73
2022-12-20T11:05:56.380Z,87.72
2022-12-20T11:08:51.229Z,86.38
2022-12-20T11:11:17.225Z,86.66
2022-12-20T11:13:46.115Z,87.35
2022-12-20T11:16:25.389Z,87.67
2022-12-20T11:19:03.126Z,86.90
2022-12-20T11:21:43.132Z,88.23
2022-12-20T11:24:15.381Z,86.54
2022-12-20T11:26:58.737Z,87.33
2022-12-20T11:29:50.144Z,85.67
2022-12-20T11:32:30.055Z,86.43
2022-12-20T11:35:09.356Z,86.64
2022-12-20T11:37:47.320Z,87.05
2022-12-20T11:40:28.084Z,85.26
2022-12-20T11:43:07.765Z,84.49
2022-12-20T11:45:44.079Z,85.60
2022-12-20T11:48:28.045Z,86.35
2022-12-20T11:51:04.209Z,84.83
2022-12-20T11:53:40.430Z,84.54
2022-12-20T11:56:17.026Z,84.94
2022-12-20T11:58:52.849Z,87.09
2022-12-20T12:01:24.276Z,84.00
2022-12-20T12:04:06.613Z,86.76
2022-12-20T12:06:36.995Z,85.13
2022-12-20T12:09:22.134Z,85.04
2022-12-20T12:12:06.843Z,84.14
2022-12-20T12:14:55.659Z,84.84
2022-12-20T12:17:33.676Z,84.09
2022-12-20T12:20:16.660Z,84.09
2022-12-20T12:22:46.848Z,83.68
2022-12-20T12:25:19.331Z,83.85
2022-12-20T12:27:46.929Z,85.12
2022-12-20T12:30:16.072Z,84.36
2022-12-20T12:32:50.808Z,86.07
2022-12-20T12:35:46.800Z,85.55
2022-12-20T12:38:34.009Z,84.73
2022-12-20T12:41:41.848Z,84.02
2022-12-20T12:44:33.570Z,86.67
2022-12-20T12:47:06.285Z,84.86
2022-12-20T12:49:35.000Z,84.93
2022-12-20T12:52:05.868Z,84.58
2022-12-20T12:54:38.525Z,83.60
2022-12-20T12:57:13.577Z,83.81
2022-12-20T12:59:43.869Z,84.07
2022-12-20T13:02:37.118Z,82.57
2022-12-20T13:05:34.417Z,84.53
2022-12-20T13:08:01.885Z,83.52
2022-12-20T13:11:09.056Z,84.13
2022-12-20T13:13:37.829Z,83.71
2022-12-20T13:16:11.332Z,83.70
2022-12-20T13:18:38.904Z,84.48
2022-12-20T13:21:37.233Z,83.55
2022-12-20T13:24:40.331Z,83.21
2022-12-20T13:27:22.636Z,85.16
2022-12-20T13:30:02.448Z,83.85
2022-12-20T13:32:56.759Z,83.88
2022-12-20T13:35:33.623Z,84.60
2022-12-20T13:38:04.717Z,85.71
2022-12-20T13:40:37.561Z,83.90
2022-12-20T13:43:13.098Z,84.20
2022-12-20T13:45:46.666Z,86.98
2022-12-20T13:48:18.558Z,87.63
2022-12-20T13:50:52.297Z,85.59
2022-12-20T13:53:21.426Z,84.68
2022-12-20T13:55:50.160Z,82.67
2022-12-20T13:58:20.593Z,83.67
2022-12-20T14:00:50.663Z,83.93
2022-12-20T14:03:25.207Z,84.22
2022-12-20T14:05:58.326Z,85.85
2022-12-20T14:08:30.004Z,83.92
2022-12-20T14:11:08.629Z,81.87
2022-12-20T14:13:36.034Z,83.19
2022-12-20T14:16:15.554Z,83.70
2022-12-20T14:18:44.363Z,82.20
2022-12-20T14:21:12.002Z,82.25
2022-12-20T14:23:41.878Z,81.18
2022-12-20T14:26:13.877Z,82.54
2022-12-20T14:28:44.319Z,82.20
2022-12-20T14:31:26.398Z,82.18
2022-12-20T14:34:04.022Z,81.62
2022-12-20T14:36:31.781Z,82.00
2022-12-20T14:38:59.276Z,82.96
2022-12-20T14:41:31.952Z,81.84
2022-12-20T14:44:03.966Z,82.75
2022-12-20T14:46:33.007Z,82.91
2022-12-20T14:49:18.199Z,82.37
2022-12-20T14:51:46.640Z,82.10
2022-12-20T14:54:47.734Z,81.48
2022-12-20T14:57:12.667Z,81.36
2022-12-20T14:59:40.280Z,81.04
2022-12-20T15:02:35.538Z,83.54
2022-12-20T15:05:26.024Z,83.29
2022-12-20T15:07:53.489Z,81.47
2022-12-20T15:10:20.877Z,80.79
2022-12-20T15:12:48.451Z,81.13
2022-12-20T15:15:31.464Z,81.98
2022-12-20T15:18:00.240Z,80.52
2022-12-20T15:20:27.752Z,79.76
2022-12-20T15:22:55.260Z,79.76
2022-12-20T15:25:22.782Z,80.45
2022-12-20T15:27:50.308Z,80.34
2022-12-20T15:30:18.666Z,79.93
2022-12-20T15:32:55.241Z,79.38
2022-12-20T15:35:25.689Z,80.66
2022-12-20T15:37:53.112Z,81.63
2022-12-20T15:40:20.744Z,80.45
2022-12-20T15:42:48.293Z,81.03
2022-12-20T15:45:16.264Z,79.48
2022-12-20T15:47:43.736Z,79.46
2022-12-20T15:50:13.685Z,78.34
2022-12-20T15:52:44.271Z,78.60
2022-12-20T15:55:12.374Z,78.77
2022-12-20T15:57:39.785Z,78.92
2022-12-20T16:00:10.908Z,77.44
2022-12-20T16:02:38.659Z,78.72
2022-12-20T16:05:06.810Z,78.98
2022-12-20T16:07:34.268Z,81.94
2022-12-20T16:10:03.198Z,79.78
2022-12-20T16:12:34.151Z,79.39
2022-12-20T16:15:01.707Z,80.02
2022-12-20T16:17:29.181Z,80.72
2022-12-20T16:19:56.670Z,81.49
2022-12-20T16:22:26.105Z,79.44
2022-12-20T16:24:53.563Z,79.63
2022-12-20T16:27:22.691Z,79.13
2022-12-20T16:29:50.162Z,78.93
2022-12-20T16:32:19.591Z,78.38
2022-12-20T16:34:47.209Z,79.94
2022-12-20T16:37:14.927Z,79.53
2022-12-20T16:39:43.179Z,79.54
2022-12-20T16:42:14.587Z,80.25
2022-12-20T16:44:45.266Z,78.77
2022-12-20T16:47:14.159Z,80.74
2022-12-20T16:49:45.780Z,79.87
2022-12-20T16:52:19.442Z,78.13
2022-12-20T16:54:46.967Z,78.51
2022-12-20T16:57:14.531Z,78.67
2022-12-20T16:59:43.363Z,78.32
2022-12-20T17:02:24.449Z,78.12
2022-12-20T17:04:52.207Z,78.10
2022-12-20T17:07:19.639Z,78.70
2022-12-20T17:12:32.177Z,78.00
2022-12-20T17:15:00.898Z,79.98
2022-12-20T17:17:28.306Z,79.83
2022-12-20T17:19:55.744Z,78.46
2022-12-20T17:25:19.272Z,78.53
2022-12-20T17:27:46.728Z,78.27
2022-12-20T17:30:15.999Z,78.10
2022-12-20T17:32:43.482Z,79.22
2022-12-20T17:35:20.659Z,77.33
2022-12-20T17:37:48.264Z,77.34
2022-12-20T17:40:16.825Z,77.79
2022-12-20T17:42:44.411Z,78.06
2022-12-20T17:45:26.400Z,78.81
2022-12-20T17:47:54.929Z,79.79
2022-12-20T17:50:22.915Z,77.49
2022-12-20T17:52:50.373Z,77.82
2022-12-20T17:55:20.740Z,78.25
2022-12-20T17:57:48.412Z,77.55
2022-12-20T18:00:25.333Z,78.05
2022-12-20T18:02:53.858Z,77.04
2022-12-20T18:05:22.584Z,77.06
2022-12-20T18:07:51.611Z,76.84
2022-12-20T18:10:19.136Z,76.56
2022-12-20T18:12:47.048Z,79.03
2022-12-20T18:15:15.288Z,77.78
2022-12-20T18:17:44.466Z,79.49
2022-12-20T18:20:12.939Z,78.75
2022-12-20T18:22:40.635Z,79.50
2022-12-20T18:25:08.702Z,77.84
2022-12-20T18:27:40.521Z,80.61
2022-12-20T18:30:13.475Z,79.20
2022-12-20T18:32:41.408Z,79.57
2022-12-20T18:35:11.100Z,79.03
2022-12-20T18:37:38.532Z,78.92
2022-12-20T18:40:07.438Z,79.20
2022-12-20T18:42:34.935Z,79.15
2022-12-20T18:45:02.401Z,80.18
2022-12-20T18:47:32.244Z,80.05
2022-12-20T18:49:59.866Z,79.44
2022-12-20T18:52:28.636Z,79.62
2022-12-20T18:54:56.646Z,78.82
2022-12-20T18:57:24.106Z,79.43
2022-12-20T18:59:51.630Z,81.80
2022-12-20T19:02:19.294Z,80.25
2022-12-20T19:04:46.863Z,79.68
2022-12-20T19:07:15.521Z,83.36
2022-12-20T19:09:44.310Z,80.39
2022-12-20T19:12:11.821Z,80.71
2022-12-20T19:14:39.227Z,81.57
2022-12-20T19:17:06.849Z,81.62
2022-12-20T19:19:34.327Z,80.20
2022-12-20T19:22:02.034Z,81.27
2022-12-20T19:24:29.481Z,81.29
2022-12-20T19:26:58.613Z,80.36
2022-12-20T19:29:26.058Z,80.31
2022-12-20T19:31:53.436Z,80.62
2022-12-20T19:34:20.828Z,82.48
2022-12-20T19:36:48.483Z,81.96
2022-12-20T19:39:18.009Z,82.55
2022-12-20T19:41:59.831Z,83.32
2022-12-20T19:44:34.387Z,82.74
2022-12-20T19:47:04.849Z,82.42
2022-12-20T19:49:32.309Z,82.45
2022-12-20T19:51:59.807Z,82.50
2022-12-20T19:54:27.437Z,82.02
2022-12-20T19:56:54.847Z,82.26
2022-12-20T19:59:22.325Z,82.02
2022-12-20T20:01:51.415Z,82.08
2022-12-20T20:04:18.901Z,81.69
2022-12-20T20:06:46.303Z,82.93
2022-12-20T20:09:13.713Z,82.15
2022-12-20T20:11:41.166Z,81.65
2022-12-20T20:14:10.151Z,80.90
2022-12-20T20:16:37.840Z,81.01
2022-12-20T20:19:06.887Z,80.55
2022-12-20T20:21:36.327Z,80.80
2022-12-20T20:24:03.833Z,80.53
2022-12-20T20:26:31.866Z,80.44
2022-12-20T20:29:01.387Z,80.74
2022-12-20T20:31:29.439Z,80.63
2022-12-20T20:33:58.203Z,80.72
2022-12-20T20:36:27.031Z,80.34
2022-12-20T20:38:54.459Z,81.30
2022-12-20T20:41:22.613Z,81.01
2022-12-20T20:43:50.252Z,80.02
2022-12-20T20:46:18.780Z,80.38
2022-12-20T20:48:46.604Z,79.97
2022-12-20T20:51:14.635Z,80.72
2022-12-20T20:53:43.615Z,81.14
2022-12-20T20:56:11.680Z,79.98
2022-12-20T20:58:39.443Z,81.42
2022-12-20T21:01:09.307Z,80.00
2022-12-20T21:03:38.047Z,79.60
2022-12-20T21:06:39.174Z,80.33
2022-12-20T21:08:56.155Z,80.41
2022-12-20T21:11:24.419Z,78.96
2022-12-20T21:13:53.976Z,80.51
2022-12-20T21:16:22.478Z,81.07
2022-12-20T21:18:51.692Z,80.48
2022-12-20T21:21:20.218Z,79.33
2022-12-20T21:23:48.307Z,80.18
2022-12-20T21:26:18.452Z,79.66
2022-12-20T21:28:46.000Z,80.44
2022-12-20T21:31:14.991Z,79.64
2022-12-20T21:33:42.882Z,79.90
2022-12-20T21:36:14.390Z,79.98
2022-12-20T21:38:42.486Z,79.69
2022-12-20T21:41:13.246Z,79.46
2022-12-20T21:43:42.099Z,80.34
2022-12-20T21:46:11.279Z,79.64
2022-12-20T21:48:39.309Z,79.65
2022-12-20T21:51:10.007Z,79.24
2022-12-20T21:53:42.198Z,80.05
2022-12-20T21:56:09.767Z,82.02
2022-12-20T21:58:37.464Z,82.16
2022-12-20T22:01:07.983Z,80.28
2022-12-20T22:03:36.752Z,81.08
2022-12-20T22:06:05.169Z,80.56
2022-12-20T22:08:33.259Z,78.90
2022-12-20T22:11:01.992Z,83.11
2022-12-20T22:13:33.235Z,82.11
2022-12-20T22:16:08.234Z,81.35
2022-12-20T22:18:36.603Z,80.53
2022-12-20T22:21:04.600Z,81.11
2022-12-20T22:23:32.458Z,81.45
2022-12-20T22:26:02.575Z,85.32
2022-12-20T22:28:30.382Z,80.83
2022-12-20T22:30:57.846Z,81.21
2022-12-20T22:33:26.551Z,79.62
2022-12-20T22:35:53.986Z,79.77
2022-12-20T22:38:21.395Z,82.52
2022-12-20T22:40:48.772Z,83.14
2022-12-20T22:43:16.192Z,83.27
2022-12-20T22:45:43.690Z,82.98
2022-12-20T22:48:11.185Z,81.59
2022-12-20T22:50:39.932Z,83.11
2022-12-20T22:53:07.415Z,80.95
2022-12-20T22:55:35.541Z,82.21
2022-12-20T22:58:03.186Z,83.56
2022-12-20T23:00:30.713Z,83.29
2022-12-20T23:02:58.300Z,81.65
2022-12-20T23:05:25.975Z,82.86
2022-12-20T23:07:54.833Z,81.97
2022-12-20T23:10:39.717Z,81.23
2022-12-20T23:13:24.922Z,82.25
2022-12-20T23:15:52.542Z,83.63
2022-12-20T23:18:20.038Z,81.62
2022-12-20T23:21:07.469Z,81.62
2022-12-20T23:23:36.227Z,81.25
2022-12-20T23:26:10.146Z,82.00
2022-12-20T23:28:37.769Z,83.65
2022-12-20T23:31:05.946Z,83.82
2022-12-20T23:33:33.602Z,84.01
2022-12-20T23:36:02.867Z,82.72
2022-12-20T23:38:32.300Z,82.93
2022-12-20T23:41:01.323Z,82.68
2022-12-20T23:43:30.580Z,84.44
2022-12-20T23:46:03.502Z,84.09
2022-12-20T23:48:31.026Z,83.95
2022-12-20T23:50:59.329Z,85.15
2022-12-20T23:53:27.321Z,84.77
2022-12-20T23:56:05.210Z,88.32
2022-12-20T23:58:32.788Z,87.11
